Terminal Aerodrome Forecast
Issued by NWS

Current Version | Previous Version | Text Only | Print | Product List | Glossary Off
Versions: 1 2 3 4 5 6 7 8 9 10 11 12 13

822
FTUS41 KILN 222339
TAFLCK
TAF
KLCK 222339Z 2300/2324 03007KT P6SM FEW250
     FM230600 06006KT P6SM FEW250
     FM231400 11007KT P6SM SCT150
     FM232000 15009KT P6SM BKN150=

USA.gov is the U.S. government's official web portal to all federal, state and local government web resources and services.